Time;durP1;ratioP1;P1;durP2;ratioP2;P2;SDS_P1;SDS_P2;PMS_P1;PMS_P2;Temp;Humidity;BMP_temperature;BMP_pressure;BME280_temperature;BME280_humidity;BME280_pressure;Samples;Min_cycle;Max_cycle;Signal;HPM_P1;HPM_P2
2023/03/09 00:00:15;;;;;;;43.53;25.73;;;;;;;;;;4386047;32;319471;-85
2023/03/09 00:02:42;;;;;;;44.53;25.77;;;;;;;;;;4397861;32;319855;-83
2023/03/09 00:05:12;;;;;;;48.37;27.60;;;;;;;;;;4400250;32;319425;-83
2023/03/09 00:07:39;;;;;;;43.13;26.03;;;;;;;;;;4412632;32;319543;-83
2023/03/09 00:10:07;;;;;;;43.60;26.37;;;;;;;;;;4389620;32;319350;-83
2023/03/09 00:12:34;;;;;;;40.97;23.80;;;;;;;;;;4396464;32;319428;-86
2023/03/09 00:15:02;;;;;;;40.13;23.27;;;;;;;;;;4386061;32;319402;-84
2023/03/09 00:17:30;;;;;;;32.53;19.33;;;;;;;;;;4396483;32;319267;-85
2023/03/09 00:20:04;;;;;;;31.83;16.33;;;;;;;;;;4386068;32;318922;-82
2023/03/09 00:22:32;;;;;;;34.10;19.43;;;;;;;;;;4395274;32;318938;-83
2023/03/09 00:24:59;;;;;;;39.17;20.87;;;;;;;;;;4384961;32;358241;-83
2023/03/09 00:27:26;;;;;;;44.37;20.80;;;;;;;;;;4397163;32;319239;-83
2023/03/09 00:29:53;;;;;;;37.07;21.10;;;;;;;;;;4390177;32;318858;-84
2023/03/09 00:32:20;;;;;;;31.63;19.63;;;;;;;;;;4400628;32;318929;-83
2023/03/09 00:34:48;;;;;;;33.30;18.07;;;;;;;;;;4397114;32;319406;-83
2023/03/09 00:37:15;;;;;;;35.53;19.03;;;;;;;;;;4400155;32;320232;-83
2023/03/09 00:39:42;;;;;;;42.80;24.40;;;;;;;;;;4398942;32;319737;-84
2023/03/09 00:42:09;;;;;;;31.53;18.53;;;;;;;;;;4389305;32;319428;-82
2023/03/09 00:44:36;;;;;;;18.40;13.20;;;;;;;;;;4388272;32;319745;-84
2023/03/09 00:47:02;;;;;;;21.50;13.50;;;;;;;;;;4374267;32;319440;-83
2023/03/09 00:49:29;;;;;;;24.53;13.07;;;;;;;;;;4384768;32;319626;-83
2023/03/09 00:51:57;;;;;;;28.80;16.20;;;;;;;;;;4378660;32;319280;-82
2023/03/09 00:54:24;;;;;;;30.10;14.93;;;;;;;;;;4399845;32;318857;-83
2023/03/09 00:56:51;;;;;;;32.17;16.03;;;;;;;;;;4388615;32;319543;-83
2023/03/09 00:59:18;;;;;;;23.83;14.20;;;;;;;;;;4399365;32;319881;-85
2023/03/09 01:01:45;;;;;;;28.07;13.10;;;;;;;;;;4399925;32;319327;-85
2023/03/09 01:04:12;;;;;;;24.93;13.27;;;;;;;;;;4393678;32;418242;-85
2023/03/09 01:06:39;;;;;;;25.70;14.43;;;;;;;;;;4414505;32;319396;-85
2023/03/09 01:09:07;;;;;;;28.73;15.07;;;;;;;;;;4397038;32;318621;-82
2023/03/09 01:11:34;;;;;;;27.60;14.97;;;;;;;;;;4399302;32;319585;-84
2023/03/09 01:14:00;;;;;;;30.90;15.10;;;;;;;;;;4388283;32;319168;-83
2023/03/09 01:16:27;;;;;;;25.67;15.07;;;;;;;;;;4398816;32;358884;-85
2023/03/09 01:18:54;;;;;;;26.27;15.17;;;;;;;;;;4387888;32;318707;-82
2023/03/09 01:21:23;;;;;;;29.20;14.73;;;;;;;;;;4399488;32;319450;-83
2023/03/09 01:23:50;;;;;;;26.60;14.10;;;;;;;;;;4389401;32;319695;-83
2023/03/09 01:26:19;;;;;;;22.30;13.77;;;;;;;;;;4399448;32;318813;-83
2023/03/09 01:28:47;;;;;;;32.63;14.80;;;;;;;;;;4397720;32;319551;-84
2023/03/09 01:31:16;;;;;;;27.97;14.93;;;;;;;;;;4386576;32;418904;-84
2023/03/09 01:33:45;;;;;;;40.73;19.60;;;;;;;;;;4399379;32;319321;-87
2023/03/09 01:36:14;;;;;;;86.20;41.23;;;;;;;;;;4389545;32;319428;-83
2023/03/09 01:38:41;;;;;;;82.00;38.47;;;;;;;;;;4396507;32;318754;-84
2023/03/09 01:41:08;;;;;;;72.43;34.77;;;;;;;;;;4374378;32;319324;-84
2023/03/09 01:43:40;;;;;;;49.77;28.10;;;;;;;;;;4383664;32;319580;-82
2023/03/09 01:46:33;;;;;;;49.83;25.97;;;;;;;;;;4375974;32;319420;-83
2023/03/09 01:49:07;;;;;;;74.10;34.83;;;;;;;;;;4378921;32;319540;-85
2023/03/09 01:51:38;;;;;;;83.03;37.40;;;;;;;;;;4401062;32;318731;-84
2023/03/09 01:54:08;;;;;;;69.53;31.80;;;;;;;;;;4372852;32;358404;-81
2023/03/09 01:56:38;;;;;;;68.90;32.47;;;;;;;;;;4383954;32;319704;-82
2023/03/09 01:59:07;;;;;;;55.77;28.80;;;;;;;;;;4371884;32;319421;-85
2023/03/09 02:01:36;;;;;;;51.83;26.37;;;;;;;;;;4383812;32;318627;-85
2023/03/09 02:04:09;;;;;;;50.30;26.03;;;;;;;;;;4384092;32;319210;-84
2023/03/09 02:06:36;;;;;;;52.27;29.13;;;;;;;;;;4412839;32;358520;-84
2023/03/09 02:09:12;;;;;;;42.63;26.60;;;;;;;;;;4397653;32;319355;-81
2023/03/09 02:11:39;;;;;;;52.03;30.03;;;;;;;;;;4398670;32;318706;-82
2023/03/09 02:14:09;;;;;;;51.40;29.33;;;;;;;;;;4388556;32;319418;-81
2023/03/09 02:16:37;;;;;;;61.07;28.87;;;;;;;;;;4398892;32;318701;-84
2023/03/09 02:19:05;;;;;;;46.73;26.57;;;;;;;;;;4394599;32;319794;-85
2023/03/09 02:21:39;;;;;;;51.93;27.97;;;;;;;;;;4402822;32;319255;-84
2023/03/09 02:24:13;;;;;;;53.67;28.97;;;;;;;;;;4388085;32;319482;-84
2023/03/09 02:26:44;;;;;;;48.90;28.07;;;;;;;;;;4398869;32;319162;-81
2023/03/09 02:29:12;;;;;;;42.83;25.33;;;;;;;;;;4387727;32;319816;-83
2023/03/09 02:31:40;;;;;;;40.60;23.67;;;;;;;;;;4401002;32;319042;-84
2023/03/09 02:34:07;;;;;;;53.30;29.57;;;;;;;;;;4394799;32;319352;-84
2023/03/09 02:36:34;;;;;;;45.80;25.43;;;;;;;;;;4412255;32;318832;-86
2023/03/09 02:39:14;;;;;;;43.13;23.30;;;;;;;;;;4403680;32;319794;-86
2023/03/09 02:41:41;;;;;;;32.53;20.10;;;;;;;;;;4413376;32;318657;-84
2023/03/09 02:44:10;;;;;;;32.30;21.70;;;;;;;;;;4389853;32;319395;-83
2023/03/09 02:46:39;;;;;;;34.90;19.10;;;;;;;;;;4397020;32;319353;-83
2023/03/09 02:49:06;;;;;;;27.97;15.73;;;;;;;;;;4387212;32;319203;-83
2023/03/09 02:51:32;;;;;;;26.77;15.83;;;;;;;;;;4394037;32;319832;-83
2023/03/09 02:53:59;;;;;;;35.83;18.83;;;;;;;;;;4388175;32;318669;-84
2023/03/09 02:56:26;;;;;;;33.70;19.33;;;;;;;;;;4400027;32;319295;-84
2023/03/09 02:58:53;;;;;;;36.97;24.57;;;;;;;;;;4388805;32;319739;-85
2023/03/09 03:01:20;;;;;;;40.50;24.00;;;;;;;;;;4396027;32;350154;-83
2023/03/09 03:03:49;;;;;;;37.57;21.67;;;;;;;;;;4401912;32;340665;-80
2023/03/09 03:06:16;;;;;;;29.13;18.80;;;;;;;;;;4400709;32;418478;-83
2023/03/09 03:08:43;;;;;;;26.67;16.33;;;;;;;;;;4406949;32;319245;-83
2023/03/09 03:11:09;;;;;;;28.13;15.03;;;;;;;;;;4387221;32;350497;-85
2023/03/09 03:13:36;;;;;;;25.30;14.40;;;;;;;;;;4397404;32;319615;-83
2023/03/09 03:16:04;;;;;;;28.27;16.40;;;;;;;;;;4386126;32;319179;-83
2023/03/09 03:18:31;;;;;;;25.03;14.40;;;;;;;;;;4396953;32;319276;-83
2023/03/09 03:20:59;;;;;;;27.53;16.17;;;;;;;;;;4388133;32;319477;-84
2023/03/09 03:23:26;;;;;;;24.73;15.67;;;;;;;;;;4397760;32;319381;-83
2023/03/09 03:25:53;;;;;;;38.07;16.80;;;;;;;;;;4388048;32;319335;-84
2023/03/09 03:28:20;;;;;;;30.17;16.17;;;;;;;;;;4396020;32;319478;-84
2023/03/09 03:30:51;;;;;;;34.80;18.97;;;;;;;;;;4396539;32;319474;-83
2023/03/09 03:33:18;;;;;;;40.33;21.77;;;;;;;;;;4383815;32;420421;-84
2023/03/09 03:35:45;;;;;;;40.30;23.57;;;;;;;;;;4396539;32;319210;-83
2023/03/09 03:38:13;;;;;;;38.00;21.63;;;;;;;;;;4385031;32;367622;-82
2023/03/09 03:40:39;;;;;;;32.67;18.53;;;;;;;;;;4396393;32;319477;-83
2023/03/09 03:43:06;;;;;;;33.57;18.93;;;;;;;;;;4387334;32;319356;-82
2023/03/09 03:45:33;;;;;;;35.70;20.37;;;;;;;;;;4397457;32;319537;-82
2023/03/09 03:48:02;;;;;;;30.17;18.37;;;;;;;;;;4386866;32;318241;-82
2023/03/09 03:50:28;;;;;;;40.87;23.03;;;;;;;;;;4398683;32;318339;-84
2023/03/09 03:52:55;;;;;;;31.90;17.97;;;;;;;;;;4387919;32;318606;-83
2023/03/09 03:55:24;;;;;;;32.97;18.13;;;;;;;;;;4400780;32;317771;-83
2023/03/09 03:57:51;;;;;;;30.77;17.50;;;;;;;;;;4377954;32;317822;-83
2023/03/09 04:00:19;;;;;;;31.00;19.50;;;;;;;;;;4408524;32;317762;-82
2023/03/09 04:02:46;;;;;;;49.00;29.40;;;;;;;;;;4399213;32;318209;-83
2023/03/09 04:05:14;;;;;;;81.00;38.73;;;;;;;;;;4399897;32;417572;-85
2023/03/09 04:07:40;;;;;;;121.77;52.77;;;;;;;;;;4415911;32;318101;-86
2023/03/09 04:10:09;;;;;;;92.67;39.33;;;;;;;;;;4392963;32;319323;-86
2023/03/09 04:12:39;;;;;;;66.33;32.90;;;;;;;;;;4399762;32;318186;-84
2023/03/09 04:15:07;;;;;;;72.97;32.87;;;;;;;;;;4382993;32;318510;-82
2023/03/09 04:17:34;;;;;;;91.53;39.00;;;;;;;;;;4411492;32;318755;-84
2023/03/09 04:20:01;;;;;;;70.43;32.50;;;;;;;;;;4388112;32;317607;-84
2023/03/09 04:22:28;;;;;;;62.80;28.70;;;;;;;;;;4400115;32;318130;-84
2023/03/09 04:24:55;;;;;;;66.47;33.37;;;;;;;;;;4390165;32;318740;-85
2023/03/09 04:27:21;;;;;;;68.67;38.20;;;;;;;;;;4400566;32;317614;-85
2023/03/09 04:29:49;;;;;;;59.90;37.97;;;;;;;;;;4390318;32;318129;-83
2023/03/09 04:32:16;;;;;;;72.20;40.83;;;;;;;;;;4400318;32;318683;-84
2023/03/09 04:34:43;;;;;;;64.77;36.83;;;;;;;;;;4398860;32;318198;-84
2023/03/09 04:37:12;;;;;;;58.83;36.17;;;;;;;;;;4388856;32;330023;-82
2023/03/09 04:39:39;;;;;;;69.67;38.33;;;;;;;;;;4398556;32;318232;-82
2023/03/09 04:42:07;;;;;;;87.37;45.03;;;;;;;;;;4389880;32;318218;-83
2023/03/09 04:44:33;;;;;;;101.23;56.20;;;;;;;;;;4400160;32;318051;-82
2023/03/09 04:47:03;;;;;;;76.53;45.07;;;;;;;;;;4390309;32;319231;-83
2023/03/09 04:49:30;;;;;;;81.13;46.73;;;;;;;;;;4399663;32;317547;-83
2023/03/09 04:51:57;;;;;;;85.07;47.53;;;;;;;;;;4386190;32;318111;-83
2023/03/09 04:54:24;;;;;;;69.50;42.20;;;;;;;;;;4397462;32;317928;-84
2023/03/09 04:56:50;;;;;;;70.77;38.33;;;;;;;;;;4390281;32;345208;-84
2023/03/09 04:59:17;;;;;;;55.30;33.13;;;;;;;;;;4399759;32;318229;-82
2023/03/09 05:01:44;;;;;;;71.90;35.00;;;;;;;;;;4398581;32;317552;-85
2023/03/09 05:04:12;;;;;;;61.73;36.40;;;;;;;;;;4395630;32;318166;-83
2023/03/09 05:06:41;;;;;;;51.53;34.67;;;;;;;;;;4412477;32;318653;-82
2023/03/09 05:09:10;;;;;;;58.57;34.43;;;;;;;;;;4397838;32;318292;-81
2023/03/09 05:11:36;;;;;;;59.13;33.17;;;;;;;;;;4397911;32;319024;-81
2023/03/09 05:14:03;;;;;;;73.03;39.70;;;;;;;;;;4384220;32;318174;-82
2023/03/09 05:16:30;;;;;;;53.97;35.53;;;;;;;;;;4398101;32;318321;-81
2023/03/09 05:18:57;;;;;;;55.23;30.43;;;;;;;;;;4391222;32;318360;-82
2023/03/09 05:21:25;;;;;;;53.27;28.50;;;;;;;;;;4398030;32;317843;-81
2023/03/09 05:23:52;;;;;;;54.60;29.37;;;;;;;;;;4383889;32;347186;-82
2023/03/09 05:26:18;;;;;;;37.33;24.47;;;;;;;;;;4384477;32;318155;-81
2023/03/09 05:28:45;;;;;;;49.67;27.07;;;;;;;;;;4383759;32;318245;-82
2023/03/09 05:31:14;;;;;;;54.27;32.60;;;;;;;;;;4372523;32;418021;-81
2023/03/09 05:33:43;;;;;;;75.87;36.53;;;;;;;;;;4398664;32;317551;-82
2023/03/09 05:36:18;;;;;;;92.17;45.50;;;;;;;;;;4383454;32;318073;-82
2023/03/09 05:38:46;;;;;;;105.13;49.17;;;;;;;;;;4402893;32;318020;-81
2023/03/09 05:41:20;;;;;;;112.67;50.17;;;;;;;;;;4386106;32;418634;-80
2023/03/09 05:43:49;;;;;;;101.70;47.27;;;;;;;;;;4396447;32;319407;-81
2023/03/09 05:46:19;;;;;;;98.33;49.37;;;;;;;;;;4400115;32;319120;-82
2023/03/09 05:48:49;;;;;;;96.63;49.20;;;;;;;;;;4398970;32;318207;-82
2023/03/09 05:51:17;;;;;;;90.80;48.00;;;;;;;;;;4387845;32;419390;-80
2023/03/09 05:53:44;;;;;;;105.13;53.37;;;;;;;;;;4397673;32;317631;-86
2023/03/09 05:56:14;;;;;;;91.70;51.67;;;;;;;;;;4380597;32;347861;-82
2023/03/09 05:58:41;;;;;;;136.10;60.17;;;;;;;;;;4406643;32;318307;-82
2023/03/09 06:01:18;;;;;;;101.23;51.63;;;;;;;;;;4385825;32;346119;-82
2023/03/09 06:03:45;;;;;;;93.63;57.20;;;;;;;;;;4401187;32;318137;-82
2023/03/09 06:06:28;;;;;;;95.77;55.77;;;;;;;;;;4399826;32;419207;-85
2023/03/09 06:08:55;;;;;;;102.63;62.83;;;;;;;;;;4397092;32;355722;-83
2023/03/09 06:11:23;;;;;;;106.30;63.97;;;;;;;;;;4398321;32;319175;-85
2023/03/09 06:13:53;;;;;;;110.00;65.00;;;;;;;;;;4386537;32;319323;-84
2023/03/09 06:16:20;;;;;;;99.23;59.27;;;;;;;;;;4404075;32;318589;-83
2023/03/09 06:18:47;;;;;;;119.03;67.00;;;;;;;;;;4395413;32;318210;-83
2023/03/09 06:21:15;;;;;;;108.60;68.70;;;;;;;;;;4397662;32;319541;-82
2023/03/09 06:23:55;;;;;;;120.50;74.43;;;;;;;;;;4397809;32;318749;-82
2023/03/09 06:26:25;;;;;;;143.27;74.80;;;;;;;;;;4376578;32;418207;-82
2023/03/09 06:28:52;;;;;;;131.73;78.33;;;;;;;;;;4388141;32;319436;-82
2023/03/09 06:31:19;;;;;;;118.43;72.93;;;;;;;;;;4398279;32;319333;-85
2023/03/09 06:33:47;;;;;;;115.63;73.70;;;;;;;;;;4397248;32;318783;-82
2023/03/09 06:36:15;;;;;;;121.33;71.87;;;;;;;;;;4384038;32;418538;-80
2023/03/09 06:38:42;;;;;;;111.40;67.57;;;;;;;;;;4396069;32;318530;-81
2023/03/09 06:41:09;;;;;;;127.40;68.13;;;;;;;;;;4386239;32;319243;-83
2023/03/09 06:43:37;;;;;;;108.43;64.27;;;;;;;;;;4396593;32;351486;-82
2023/03/09 06:46:04;;;;;;;96.97;61.47;;;;;;;;;;4385376;32;320443;-82
2023/03/09 06:48:31;;;;;;;107.70;60.90;;;;;;;;;;4397097;32;318110;-80
2023/03/09 06:50:59;;;;;;;157.23;80.37;;;;;;;;;;4382709;32;319691;-84
2023/03/09 06:53:27;;;;;;;100.07;60.63;;;;;;;;;;4396605;32;319430;-82
2023/03/09 06:55:54;;;;;;;88.13;56.80;;;;;;;;;;4385688;32;319798;-84
2023/03/09 06:58:21;;;;;;;91.90;57.93;;;;;;;;;;4396078;32;319075;-83
2023/03/09 07:00:49;;;;;;;92.33;56.77;;;;;;;;;;4385832;32;318745;-84
2023/03/09 07:03:18;;;;;;;78.50;51.73;;;;;;;;;;4397825;32;319352;-81
2023/03/09 07:05:44;;;;;;;85.50;50.63;;;;;;;;;;4412922;32;319426;-81
2023/03/09 07:08:11;;;;;;;80.07;46.63;;;;;;;;;;4400600;32;319299;-82
2023/03/09 07:10:38;;;;;;;67.37;41.93;;;;;;;;;;4396345;32;318949;-81
2023/03/09 07:13:06;;;;;;;59.97;40.17;;;;;;;;;;4385710;32;319185;-83
2023/03/09 07:15:33;;;;;;;71.27;42.87;;;;;;;;;;4397449;32;319356;-83
2023/03/09 07:18:02;;;;;;;61.10;35.87;;;;;;;;;;4374241;32;319356;-80
2023/03/09 07:20:29;;;;;;;64.20;35.53;;;;;;;;;;4381613;32;319195;-81
2023/03/09 07:22:56;;;;;;;63.73;38.13;;;;;;;;;;4370968;32;319147;-82
2023/03/09 07:25:23;;;;;;;57.17;37.60;;;;;;;;;;4393857;32;319431;-81
2023/03/09 07:27:50;;;;;;;44.50;32.20;;;;;;;;;;4383669;32;359216;-81
2023/03/09 07:30:18;;;;;;;353.60;129.33;;;;;;;;;;4397234;32;319234;-81
2023/03/09 07:32:45;;;;;;;65.33;37.07;;;;;;;;;;4396968;32;321635;-81
2023/03/09 07:35:13;;;;;;;54.70;31.70;;;;;;;;;;4387329;32;319367;-82
2023/03/09 07:37:40;;;;;;;61.77;37.30;;;;;;;;;;4394380;32;318490;-83
2023/03/09 07:40:10;;;;;;;55.63;36.87;;;;;;;;;;4393491;32;319338;-80
2023/03/09 07:42:36;;;;;;;48.73;31.17;;;;;;;;;;4396440;32;319367;-81
2023/03/09 07:45:04;;;;;;;58.57;35.83;;;;;;;;;;4387015;32;319065;-81
2023/03/09 07:47:31;;;;;;;52.50;35.03;;;;;;;;;;4395972;32;319756;-81
2023/03/09 07:49:59;;;;;;;56.80;33.60;;;;;;;;;;4388113;32;319793;-83
2023/03/09 07:52:30;;;;;;;43.13;27.13;;;;;;;;;;4397370;32;319338;-82
2023/03/09 07:54:57;;;;;;;41.57;28.23;;;;;;;;;;4386582;32;323967;-81
2023/03/09 07:57:26;;;;;;;50.53;28.00;;;;;;;;;;4398614;32;319218;-81
2023/03/09 07:59:54;;;;;;;40.60;26.13;;;;;;;;;;4387398;32;318892;-81
2023/03/09 08:02:21;;;;;;;47.53;27.47;;;;;;;;;;4396916;32;319429;-81
2023/03/09 08:04:47;;;;;;;44.03;25.77;;;;;;;;;;4397243;32;318609;-81
2023/03/09 08:07:15;;;;;;;39.50;25.83;;;;;;;;;;4410452;32;318723;-80
2023/03/09 08:09:44;;;;;;;41.00;24.10;;;;;;;;;;4399743;32;318989;-82
2023/03/09 08:12:11;;;;;;;39.67;22.97;;;;;;;;;;4384764;32;319406;-83
2023/03/09 08:14:38;;;;;;;34.33;21.77;;;;;;;;;;4395012;32;318725;-81
2023/03/09 08:17:05;;;;;;;40.93;22.87;;;;;;;;;;4384726;32;339544;-82
2023/03/09 08:19:32;;;;;;;32.17;21.97;;;;;;;;;;4394911;32;338083;-83
2023/03/09 08:21:59;;;;;;;32.70;21.43;;;;;;;;;;4385563;32;319518;-81
2023/03/09 08:24:27;;;;;;;37.17;22.40;;;;;;;;;;4395005;32;319156;-81
2023/03/09 08:26:55;;;;;;;32.30;20.77;;;;;;;;;;4385402;32;319133;-82
2023/03/09 08:29:22;;;;;;;38.67;20.23;;;;;;;;;;4394242;32;318528;-81
2023/03/09 08:31:49;;;;;;;32.13;17.97;;;;;;;;;;4389568;32;319378;-82
2023/03/09 08:34:19;;;;;;;32.13;18.57;;;;;;;;;;4394451;32;350690;-82
2023/03/09 08:36:45;;;;;;;31.97;19.40;;;;;;;;;;4396388;32;318573;-82
2023/03/09 08:39:13;;;;;;;28.37;19.87;;;;;;;;;;4382309;32;420313;-80
2023/03/09 08:41:41;;;;;;;34.27;20.23;;;;;;;;;;4392291;32;319174;-83
2023/03/09 08:44:10;;;;;;;31.63;20.00;;;;;;;;;;4385424;32;319397;-83
2023/03/09 08:46:37;;;;;;;23.50;16.03;;;;;;;;;;4395430;32;319433;-81
2023/03/09 08:49:04;;;;;;;30.53;15.97;;;;;;;;;;4387521;32;319260;-82
2023/03/09 08:51:31;;;;;;;36.90;20.93;;;;;;;;;;4396379;32;319196;-83
2023/03/09 08:53:57;;;;;;;34.73;17.67;;;;;;;;;;4387736;32;318406;-82
2023/03/09 08:56:24;;;;;;;27.13;18.43;;;;;;;;;;4397439;32;319125;-81
2023/03/09 08:58:51;;;;;;;26.33;13.87;;;;;;;;;;4388213;32;319319;-82
2023/03/09 09:01:19;;;;;;;28.47;14.20;;;;;;;;;;4397306;32;319015;-81
2023/03/09 09:03:46;;;;;;;29.90;16.20;;;;;;;;;;4402160;32;319228;-83
2023/03/09 09:06:15;;;;;;;21.50;14.60;;;;;;;;;;4398872;32;418604;-83
2023/03/09 09:08:42;;;;;;;31.47;15.00;;;;;;;;;;4406742;32;319237;-81
2023/03/09 09:11:11;;;;;;;28.50;15.97;;;;;;;;;;4372670;32;318618;-82
2023/03/09 09:13:39;;;;;;;44.27;24.10;;;;;;;;;;4380100;32;319208;-81
2023/03/09 09:16:08;;;;;;;26.13;13.20;;;;;;;;;;4382222;32;319465;-81
2023/03/09 09:18:38;;;;;;;22.80;14.10;;;;;;;;;;4405463;32;318898;-82
2023/03/09 09:21:07;;;;;;;34.87;14.63;;;;;;;;;;4388711;32;319208;-83
2023/03/09 09:23:34;;;;;;;17.73;9.97;;;;;;;;;;4397387;32;318735;-83
2023/03/09 09:26:01;;;;;;;15.37;9.70;;;;;;;;;;4387761;32;318313;-82
2023/03/09 09:28:28;;;;;;;20.57;11.87;;;;;;;;;;4398637;32;318329;-81
2023/03/09 09:30:56;;;;;;;18.50;10.13;;;;;;;;;;4387807;32;339997;-82
2023/03/09 09:33:25;;;;;;;17.80;10.50;;;;;;;;;;4397344;32;318736;-83
2023/03/09 09:36:00;;;;;;;16.53;10.73;;;;;;;;;;4388629;32;319340;-83
2023/03/09 09:38:28;;;;;;;21.87;9.77;;;;;;;;;;4398300;32;319471;-82
2023/03/09 09:40:59;;;;;;;23.77;11.93;;;;;;;;;;4388411;32;317847;-83
2023/03/09 09:43:27;;;;;;;19.60;11.53;;;;;;;;;;4398170;32;318692;-83
2023/03/09 09:45:57;;;;;;;27.10;15.73;;;;;;;;;;4387679;32;319119;-82
2023/03/09 09:48:25;;;;;;;29.67;14.53;;;;;;;;;;4397540;32;319317;-82
2023/03/09 09:51:09;;;;;;;25.23;15.37;;;;;;;;;;4390494;32;319317;-84
2023/03/09 09:53:50;;;;;;;19.97;13.20;;;;;;;;;;4400766;32;318688;-82
2023/03/09 09:56:21;;;;;;;27.23;14.07;;;;;;;;;;4383191;32;390765;-83
2023/03/09 09:58:56;;;;;;;20.57;12.73;;;;;;;;;;4386448;32;318860;-84
2023/03/09 10:01:28;;;;;;;20.63;11.80;;;;;;;;;;4398002;32;319408;-84
2023/03/09 10:04:01;;;;;;;12.20;8.17;;;;;;;;;;4392593;32;319718;-83
2023/03/09 10:06:29;;;;;;;14.00;6.97;;;;;;;;;;4390762;32;317905;-83
2023/03/09 10:08:59;;;;;;;23.93;9.30;;;;;;;;;;4377688;32;318161;-83
2023/03/09 10:11:29;;;;;;;14.83;8.77;;;;;;;;;;4395859;32;343624;-84
2023/03/09 10:14:02;;;;;;;25.57;8.93;;;;;;;;;;4386605;32;318148;-81
2023/03/09 10:16:34;;;;;;;30.17;11.13;;;;;;;;;;4394441;32;318203;-81
2023/03/09 10:19:05;;;;;;;25.40;15.17;;;;;;;;;;4372387;32;318781;-82
2023/03/09 10:21:41;;;;;;;11.40;6.47;;;;;;;;;;4382784;32;319257;-83
2023/03/09 10:24:20;;;;;;;12.57;5.47;;;;;;;;;;4372149;32;318243;-81
2023/03/09 10:26:57;;;;;;;13.90;5.73;;;;;;;;;;4374510;32;317677;-83
2023/03/09 10:29:32;;;;;;;13.87;5.23;;;;;;;;;;4381663;32;318368;-83
2023/03/09 10:32:05;;;;;;;10.93;4.03;;;;;;;;;;4373192;32;318761;-82
2023/03/09 10:34:41;;;;;;;5.00;3.57;;;;;;;;;;4382097;32;317317;-81
2023/03/09 10:37:17;;;;;;;4.50;3.13;;;;;;;;;;4371158;32;357008;-82
2023/03/09 10:39:46;;;;;;;4.47;3.07;;;;;;;;;;4382521;32;316363;-82
2023/03/09 10:42:19;;;;;;;4.43;3.00;;;;;;;;;;4353835;32;417217;-82
2023/03/09 10:44:57;;;;;;;11.43;3.93;;;;;;;;;;4366331;32;316533;-81
2023/03/09 10:47:24;;;;;;;5.03;3.17;;;;;;;;;;4353636;32;417572;-82
2023/03/09 10:50:10;;;;;;;8.37;2.93;;;;;;;;;;4356299;32;317148;-83
2023/03/09 10:52:38;;;;;;;4.65;2.83;;;;;;;;;;4372675;32;317365;-84
2023/03/09 10:55:44;;;;;;;3.97;2.78;;;;;;;;;;4363616;32;316354;-84
2023/03/09 10:58:21;;;;;;;5.82;2.72;;;;;;;;;;4353858;32;317518;-84
2023/03/09 11:01:04;;;;;;;6.05;3.65;;;;;;;;;;4369185;32;316583;-82
2023/03/09 11:03:34;;;;;;;7.50;3.20;;;;;;;;;;4382458;32;316987;-83
2023/03/09 11:06:22;;;;;;;8.55;4.37;;;;;;;;;;4373113;32;317043;-83
2023/03/09 11:08:58;;;;;;;9.23;3.00;;;;;;;;;;4375933;32;317089;-82
2023/03/09 11:11:27;;;;;;;4.62;2.40;;;;;;;;;;4412421;32;316581;-82
2023/03/09 11:13:54;;;;;;;4.68;2.67;;;;;;;;;;4409019;32;316416;-81
2023/03/09 11:16:24;;;;;;;4.82;2.90;;;;;;;;;;4415642;32;317757;-82
2023/03/09 11:19:07;;;;;;;10.07;2.83;;;;;;;;;;4401988;32;317216;-82
2023/03/09 11:21:35;;;;;;;3.10;2.30;;;;;;;;;;4411414;32;318347;-81
2023/03/09 11:24:07;;;;;;;7.20;3.73;;;;;;;;;;4397467;32;317129;-81
2023/03/09 11:26:39;;;;;;;9.63;3.60;;;;;;;;;;4431219;32;316628;-81
2023/03/09 11:29:15;;;;;;;5.93;2.75;;;;;;;;;;4407073;32;316747;-79
2023/03/09 11:31:44;;;;;;;5.32;3.03;;;;;;;;;;4403364;32;316774;-82
2023/03/09 11:34:17;;;;;;;3.30;1.70;;;;;;;;;;4378211;32;317356;-81
2023/03/09 11:36:51;;;;;;;3.35;1.83;;;;;;;;;;4393516;32;317449;-81
2023/03/09 11:39:25;;;;;;;7.72;2.53;;;;;;;;;;4373676;32;416081;-81
2023/03/09 11:41:55;;;;;;;5.25;2.42;;;;;;;;;;4383809;32;317421;-83
2023/03/09 11:44:26;;;;;;;9.00;2.08;;;;;;;;;;4395039;32;316846;-82
2023/03/09 11:46:57;;;;;;;2.37;1.50;;;;;;;;;;4384338;32;317904;-82
2023/03/09 11:49:27;;;;;;;2.17;1.40;;;;;;;;;;4395704;32;340514;-81
2023/03/09 11:51:54;;;;;;;1.00;0.90;;;;;;;;;;4380530;32;316685;-82
2023/03/09 11:54:30;;;;;;;3.53;1.87;;;;;;;;;;4381767;32;316656;-82
2023/03/09 11:57:02;;;;;;;4.40;2.37;;;;;;;;;;4372369;32;317409;-83
2023/03/09 11:59:34;;;;;;;4.22;1.52;;;;;;;;;;4381178;32;317331;-82
2023/03/09 12:02:11;;;;;;;2.78;1.50;;;;;;;;;;4371622;32;317537;-82
2023/03/09 12:04:38;;;;;;;3.03;2.00;;;;;;;;;;4375539;32;317231;-83
2023/03/09 12:07:14;;;;;;;2.23;1.20;;;;;;;;;;4378480;32;353914;-84
2023/03/09 12:09:52;;;;;;;5.53;1.77;;;;;;;;;;4405663;32;317429;-84
2023/03/09 12:12:26;;;;;;;2.85;1.70;;;;;;;;;;4392670;32;416270;-84
2023/03/09 12:14:59;;;;;;;5.93;2.05;;;;;;;;;;4388751;32;317246;-86
2023/03/09 12:17:32;;;;;;;2.58;1.70;;;;;;;;;;4396838;32;317309;-86
2023/03/09 12:20:00;;;;;;;8.13;2.97;;;;;;;;;;4387563;32;317322;-85
2023/03/09 12:22:31;;;;;;;5.60;2.53;;;;;;;;;;4397954;32;317336;-83
2023/03/09 12:25:01;;;;;;;7.25;3.28;;;;;;;;;;4386888;32;316541;-83
2023/03/09 12:27:31;;;;;;;12.88;4.68;;;;;;;;;;4398984;32;317227;-82
2023/03/09 12:30:11;;;;;;;8.15;3.60;;;;;;;;;;4389087;32;317867;-82
2023/03/09 12:32:43;;;;;;;7.78;4.53;;;;;;;;;;4398579;32;316740;-82
2023/03/09 12:35:39;;;;;;;9.77;6.50;;;;;;;;;;4390329;32;317205;-82
2023/03/09 12:38:20;;;;;;;4.47;3.20;;;;;;;;;;4390323;32;317317;-84
2023/03/09 12:40:49;;;;;;;3.20;1.50;;;;;;;;;;4399550;32;317368;-83
2023/03/09 12:43:48;;;;;;;2.35;1.55;;;;;;;;;;4387064;32;417533;-82
2023/03/09 12:46:51;;;;;;;4.22;2.78;;;;;;;;;;4386193;32;418753;-82
2023/03/09 12:49:20;;;;;;;8.93;6.78;;;;;;;;;;4338261;32;417678;-82
2023/03/09 12:51:59;;;;;;;2.17;1.50;;;;;;;;;;4349346;32;316840;-82
2023/03/09 12:54:26;;;;;;;2.83;1.92;;;;;;;;;;4343776;32;419162;-84
2023/03/09 12:56:55;;;;;;;1.73;1.15;;;;;;;;;;4359870;32;317288;-82
2023/03/09 12:59:27;;;;;;;1.65;1.20;;;;;;;;;;4369559;32;317317;-82
2023/03/09 13:01:54;;;;;;;2.67;1.50;;;;;;;;;;4372969;32;317288;-83
2023/03/09 13:04:24;;;;;;;4.03;2.00;;;;;;;;;;4407213;32;317644;-82
2023/03/09 13:06:58;;;;;;;1.75;1.60;;;;;;;;;;4389895;32;317485;-82
2023/03/09 13:09:33;;;;;;;6.37;2.05;;;;;;;;;;4398210;32;317177;-83
2023/03/09 13:12:05;;;;;;;2.73;1.67;;;;;;;;;;4385785;32;316880;-82
2023/03/09 13:15:09;;;;;;;3.00;1.17;;;;;;;;;;4399191;32;317465;-82
2023/03/09 13:17:38;;;;;;;2.10;1.40;;;;;;;;;;4386846;32;417249;-81
2023/03/09 13:20:18;;;;;;;3.40;1.85;;;;;;;;;;4389522;32;317576;-81
2023/03/09 13:22:45;;;;;;;3.30;1.70;;;;;;;;;;4399449;32;317218;-84
2023/03/09 13:25:30;;;;;;;7.28;2.00;;;;;;;;;;4389424;32;317457;-82
2023/03/09 13:28:16;;;;;;;8.77;1.52;;;;;;;;;;4388558;32;317367;-82
2023/03/09 13:30:45;;;;;;;4.50;1.40;;;;;;;;;;4398654;32;317844;-82
2023/03/09 13:33:25;;;;;;;3.42;1.40;;;;;;;;;;4388415;32;317214;-82
2023/03/09 13:35:55;;;;;;;3.80;1.48;;;;;;;;;;4386873;32;317292;-82
2023/03/09 13:38:27;;;;;;;10.32;2.85;;;;;;;;;;4398456;32;319198;-82
2023/03/09 13:40:56;;;;;;;3.72;1.92;;;;;;;;;;4389032;32;318523;-82
2023/03/09 13:43:29;;;;;;;11.10;1.80;;;;;;;;;;4398734;32;317288;-83
2023/03/09 13:46:22;;;;;;;4.25;1.83;;;;;;;;;;4388578;32;318427;-82
2023/03/09 13:48:51;;;;;;;6.53;2.65;;;;;;;;;;4389735;32;317445;-83
2023/03/09 13:51:48;;;;;;;5.78;3.28;;;;;;;;;;4376207;32;317426;-83
2023/03/09 13:54:26;;;;;;;3.85;2.25;;;;;;;;;;4352149;32;419044;-82
2023/03/09 13:57:01;;;;;;;5.10;2.47;;;;;;;;;;4359024;32;317602;-83
2023/03/09 13:59:34;;;;;;;8.32;1.85;;;;;;;;;;4383250;32;317170;-82
2023/03/09 14:02:04;;;;;;;10.00;2.25;;;;;;;;;;4373272;32;317544;-83
2023/03/09 14:04:34;;;;;;;3.42;1.50;;;;;;;;;;4383695;32;331142;-83
2023/03/09 14:07:01;;;;;;;3.35;2.15;;;;;;;;;;4373115;32;316870;-82
2023/03/09 14:09:32;;;;;;;2.70;1.98;;;;;;;;;;4385932;32;316608;-83
2023/03/09 14:11:59;;;;;;;2.03;1.60;;;;;;;;;;4387809;32;317088;-82
2023/03/09 14:14:27;;;;;;;6.00;1.90;;;;;;;;;;4397683;32;317489;-83
2023/03/09 14:16:56;;;;;;;6.60;2.45;;;;;;;;;;4388797;32;316701;-83
2023/03/09 14:19:27;;;;;;;2.72;1.70;;;;;;;;;;4397858;32;316560;-84
2023/03/09 14:21:56;;;;;;;5.72;1.95;;;;;;;;;;4389209;32;316659;-83
2023/03/09 14:24:25;;;;;;;3.78;2.08;;;;;;;;;;4396901;32;317484;-83
2023/03/09 14:26:53;;;;;;;6.70;2.40;;;;;;;;;;4384929;32;320085;-82